Time;durP1;ratioP1;P1;durP2;ratioP2;P2;SDS_P1;SDS_P2;PMS_P1;PMS_P2;Temp;Humidity;BMP_temperature;BMP_pressure;BME280_temperature;BME280_humidity;BME280_pressure;Samples;Min_cycle;Max_cycle;Signal;HPM_P1;HPM_P2
2022/05/06 00:01:12;;;;;;;25.42;20.83;;;12.60;99.90;;;;;;5098949;28;20055;-64
2022/05/06 00:03:39;;;;;;;24.05;19.65;;;12.60;99.90;;;;;;5090885;28;20499;-64
2022/05/06 00:06:07;;;;;;;28.52;21.88;;;12.60;99.90;;;;;;5096036;28;20040;-64
2022/05/06 00:08:35;;;;;;;27.13;22.25;;;12.60;99.90;;;;;;5105956;28;20063;-64
2022/05/06 00:11:04;;;;;;;25.50;20.10;;;12.60;99.90;;;;;;5087705;28;20062;-64
2022/05/06 00:13:31;;;;;;;23.50;20.15;;;12.60;99.90;;;;;;5101573;28;20035;-64
2022/05/06 00:15:58;;;;;;;26.92;21.20;;;12.60;99.90;;;;;;5087779;28;20043;-64
2022/05/06 00:18:25;;;;;;;24.40;19.73;;;12.60;99.90;;;;;;5101018;28;20035;-64
2022/05/06 00:20:53;;;;;;;26.90;19.15;;;12.60;99.90;;;;;;5088368;28;20040;-64
2022/05/06 00:23:20;;;;;;;21.52;17.83;;;12.60;99.90;;;;;;5097110;28;20135;-64
2022/05/06 00:25:47;;;;;;;22.55;16.88;;;12.60;99.90;;;;;;5104712;28;20051;-64
2022/05/06 00:28:15;;;;;;;21.65;16.73;;;12.70;99.90;;;;;;5098121;28;20044;-64
2022/05/06 00:30:43;;;;;;;20.48;16.95;;;12.60;99.90;;;;;;5101777;28;20475;-64
2022/05/06 00:33:10;;;;;;;19.65;16.65;;;12.70;99.90;;;;;;5105606;28;20127;-64
2022/05/06 00:35:37;;;;;;;21.92;17.58;;;12.60;99.90;;;;;;5101651;28;20467;-64
2022/05/06 00:38:05;;;;;;;24.13;19.08;;;12.70;99.90;;;;;;5106448;28;20217;-64
2022/05/06 00:40:33;;;;;;;28.88;20.67;;;12.70;99.90;;;;;;5106509;28;20047;-64
2022/05/06 00:43:00;;;;;;;25.52;18.70;;;12.60;99.90;;;;;;5099849;28;20393;-64
2022/05/06 00:45:36;;;;;;;25.33;19.25;;;12.60;99.90;;;;;;5108433;28;20052;-64
2022/05/06 00:48:05;;;;;;;21.83;17.45;;;12.60;99.90;;;;;;5101204;28;20498;-64
2022/05/06 00:50:32;;;;;;;22.88;17.73;;;12.60;99.90;;;;;;5102635;28;20552;-63
2022/05/06 00:53:04;;;;;;;25.80;18.73;;;12.50;99.90;;;;;;5097321;28;20051;-63
2022/05/06 00:55:34;;;;;;;27.80;17.65;;;12.50;99.90;;;;;;5108344;28;20122;-63
2022/05/06 00:58:02;;;;;;;26.15;20.38;;;12.50;99.90;;;;;;5105182;28;20043;-63
2022/05/06 01:00:30;;;;;;;26.63;19.80;;;12.50;99.90;;;;;;5091414;28;20123;-64
2022/05/06 01:02:57;;;;;;;24.20;19.02;;;12.50;99.90;;;;;;5098460;28;20377;-64
2022/05/06 01:05:25;;;;;;;21.65;17.90;;;12.50;99.90;;;;;;5108912;28;20081;-64
2022/05/06 01:07:53;;;;;;;21.08;17.42;;;12.50;99.90;;;;;;5110974;28;20075;-63
2022/05/06 01:10:22;;;;;;;19.48;16.92;;;12.50;99.90;;;;;;5107199;28;20047;-63
2022/05/06 01:12:50;;;;;;;20.33;15.30;;;12.40;99.90;;;;;;5109832;28;20071;-63
2022/05/06 01:15:26;;;;;;;22.45;17.38;;;12.50;99.90;;;;;;5108331;28;20040;-63
2022/05/06 01:18:09;;;;;;;;;;;12.40;99.90;;;;;;5104243;28;20413;-63
2022/05/06 01:20:41;;;;;;;24.52;17.77;;;12.40;99.90;;;;;;5109550;28;20018;-64
2022/05/06 01:23:08;;;;;;;24.08;17.10;;;12.40;99.90;;;;;;5105909;28;20126;-63
2022/05/06 01:25:36;;;;;;;21.23;16.67;;;12.40;99.90;;;;;;5111731;27;20044;-63
2022/05/06 01:28:06;;;;;;;20.52;16.05;;;12.30;99.90;;;;;;5109941;28;20065;-63
2022/05/06 01:30:45;;;;;;;19.02;15.00;;;12.30;99.90;;;;;;5105406;28;20040;-62
2022/05/06 01:33:21;;;;;;;19.42;15.57;;;12.30;99.90;;;;;;5108864;28;20038;-62
2022/05/06 01:35:52;;;;;;;19.25;15.02;;;12.30;99.90;;;;;;5106668;27;20075;-63
2022/05/06 01:38:41;;;;;;;20.42;15.73;;;12.20;99.90;;;;;;5109642;28;20059;-63
2022/05/06 01:41:21;;;;;;;16.75;14.75;;;12.20;99.90;;;;;;5098451;28;20044;-64
2022/05/06 01:44:20;;;;;;;17.83;14.10;;;12.20;99.90;;;;;;5103473;28;20124;-63
2022/05/06 01:46:49;;;;;;;19.17;13.95;;;12.20;99.90;;;;;;5108658;28;20560;-63
2022/05/06 01:49:23;;;;;;;17.45;11.90;;;12.20;99.90;;;;;;5109242;28;20042;-63
2022/05/06 01:51:53;;;;;;;17.67;12.50;;;12.20;99.90;;;;;;5111096;28;20076;-63
2022/05/06 01:54:25;;;;;;;22.67;13.90;;;12.20;99.90;;;;;;5107766;28;20040;-64
2022/05/06 01:56:53;;;;;;;15.73;12.15;;;12.10;99.90;;;;;;5108509;28;20040;-63
2022/05/06 01:59:22;;;;;;;15.05;12.45;;;12.10;99.90;;;;;;5090971;28;20416;-64
2022/05/06 02:01:56;;;;;;;15.63;12.52;;;12.10;99.90;;;;;;5072592;28;20123;-64
2022/05/06 02:07:15;;;;;;;17.73;12.35;;;12.10;99.90;;;;;;5108338;28;20031;-64
2022/05/06 02:09:44;;;;;;;15.80;12.45;;;12.00;99.90;;;;;;5105045;28;20426;-64
2022/05/06 02:12:14;;;;;;;16.63;11.45;;;12.00;99.90;;;;;;5092689;28;20040;-63
2022/05/06 02:15:00;;;;;;;14.90;10.35;;;12.10;99.90;;;;;;5107328;28;20039;-64
2022/05/06 02:17:46;;;;;;;13.55;10.75;;;12.00;99.90;;;;;;5109104;28;20048;-64
2022/05/06 02:20:48;;;;;;;;;;;12.10;99.90;;;;;;5099927;28;20131;-63
2022/05/06 02:23:31;;;;;;;15.15;10.20;;;12.00;99.90;;;;;;5095812;28;20432;-63
2022/05/06 02:26:25;;;;;;;17.50;10.80;;;12.00;99.90;;;;;;5072386;28;20067;-64
2022/05/06 02:28:55;;;;;;;16.48;12.00;;;12.00;99.90;;;;;;5096793;28;20132;-64
2022/05/06 02:34:16;;;;;;;15.48;11.27;;;12.00;99.90;;;;;;5100998;28;20112;-63
2022/05/06 02:37:10;;;;;;;17.75;12.88;;;11.90;99.90;;;;;;5087790;28;20460;-64
2022/05/06 02:39:45;;;;;;;17.30;12.40;;;11.90;99.90;;;;;;5089524;28;20472;-64
2022/05/06 02:42:24;;;;;;;16.52;11.93;;;11.90;99.90;;;;;;5098099;28;20044;-63
2022/05/06 02:44:52;;;;;;;16.92;11.75;;;11.90;99.90;;;;;;5106395;28;20040;-64
2022/05/06 02:47:20;;;;;;;17.55;13.13;;;11.90;99.90;;;;;;5106840;28;20122;-63
2022/05/06 02:49:48;;;;;;;17.13;13.43;;;11.90;99.90;;;;;;5106277;28;20546;-63
2022/05/06 02:52:17;;;;;;;17.50;12.82;;;11.90;99.90;;;;;;5086835;28;20540;-63
2022/05/06 02:54:46;;;;;;;16.15;11.75;;;11.80;99.90;;;;;;5101294;28;20123;-64
2022/05/06 02:57:16;;;;;;;;;;;11.80;99.90;;;;;;5102253;28;20036;-63
2022/05/06 02:59:45;;;;;;;15.82;12.23;;;11.80;99.90;;;;;;5104251;28;20034;-63
2022/05/06 03:02:15;;;;;;;16.38;11.88;;;11.80;99.90;;;;;;5087472;28;20093;-63
2022/05/06 03:04:43;;;;;;;16.60;11.43;;;11.80;99.90;;;;;;5097858;28;20046;-63
2022/05/06 03:07:14;;;;;;;13.68;10.52;;;11.80;99.90;;;;;;5087093;28;20428;-63
2022/05/06 03:09:47;;;;;;;;;;;11.80;99.90;;;;;;5087005;28;20086;-63
2022/05/06 03:12:18;;;;;;;18.50;13.98;;;11.80;99.90;;;;;;5087619;28;20452;-63
2022/05/06 03:15:03;;;;;;;16.85;12.20;;;11.80;99.90;;;;;;5087212;28;20440;-63
2022/05/06 03:17:42;;;;;;;15.93;11.15;;;11.70;99.90;;;;;;5086183;28;20123;-63
2022/05/06 03:20:10;;;;;;;15.57;10.38;;;11.70;99.90;;;;;;5103691;28;20130;-63
2022/05/06 03:22:42;;;;;;;16.55;9.93;;;11.70;99.90;;;;;;5106424;28;20139;-63
2022/05/06 03:25:10;;;;;;;13.20;9.03;;;11.70;99.90;;;;;;5109407;28;20051;-63
2022/05/06 03:30:26;;;;;;;15.32;11.45;;;11.70;99.90;;;;;;5108279;28;20096;-63
2022/05/06 03:32:59;;;;;;;11.35;8.73;;;11.70;99.90;;;;;;5094689;28;20424;-62
2022/05/06 03:35:28;;;;;;;11.38;8.20;;;11.70;99.90;;;;;;5101507;28;20082;-62
2022/05/06 03:37:56;;;;;;;13.68;8.15;;;11.70;99.90;;;;;;5106863;28;20059;-62
2022/05/06 03:40:24;;;;;;;13.80;8.15;;;11.70;99.90;;;;;;5096774;28;20044;-62
2022/05/06 03:42:53;;;;;;;14.98;8.75;;;11.60;99.90;;;;;;5094055;28;20050;-63
2022/05/06 03:45:21;;;;;;;14.88;9.20;;;11.60;99.90;;;;;;5097987;28;20126;-63
2022/05/06 03:47:49;;;;;;;10.93;7.75;;;11.60;99.90;;;;;;5104405;28;20443;-62
2022/05/06 03:53:03;;;;;;;12.75;8.00;;;11.60;99.90;;;;;;5107314;28;20035;-62
2022/05/06 03:55:31;;;;;;;15.40;7.72;;;11.60;99.90;;;;;;5107081;28;20066;-63
2022/05/06 03:57:59;;;;;;;13.07;7.78;;;11.60;99.90;;;;;;5105552;28;20089;-63
2022/05/06 04:00:28;;;;;;;13.60;8.32;;;11.50;99.90;;;;;;5101249;28;20043;-63
2022/05/06 04:03:03;;;;;;;15.52;10.57;;;11.50;99.90;;;;;;5078047;28;20035;-62
2022/05/06 04:05:34;;;;;;;11.48;8.73;;;11.50;99.90;;;;;;5081132;28;20404;-63
2022/05/06 04:08:04;;;;;;;12.13;7.63;;;11.50;99.90;;;;;;5094718;28;20051;-63
2022/05/06 04:10:33;;;;;;;10.45;6.75;;;11.50;99.90;;;;;;5088550;28;20106;-63
2022/05/06 04:13:02;;;;;;;12.68;7.25;;;11.50;99.90;;;;;;5096958;28;20050;-62
2022/05/06 04:15:34;;;;;;;11.10;7.70;;;11.50;99.90;;;;;;5087715;28;20049;-62
2022/05/06 04:18:05;;;;;;;10.88;6.82;;;11.50;99.90;;;;;;5097771;28;20036;-62
2022/05/06 04:23:30;;;;;;;10.73;7.65;;;11.60;99.90;;;;;;5094469;28;20055;-64
2022/05/06 04:26:06;;;;;;;8.40;6.22;;;11.60;99.90;;;;;;5106795;28;20451;-64
2022/05/06 04:28:38;;;;;;;8.50;6.50;;;11.60;99.90;;;;;;5106333;28;20173;-64
2022/05/06 04:31:07;;;;;;;10.40;6.22;;;11.60;99.90;;;;;;5097300;28;20044;-64
2022/05/06 04:33:40;;;;;;;11.77;6.95;;;11.70;99.90;;;;;;5107521;28;20391;-64
2022/05/06 04:36:15;;;;;;;11.10;6.03;;;11.70;99.90;;;;;;5106828;28;20036;-64
2022/05/06 04:38:46;;;;;;;12.85;7.57;;;11.80;99.90;;;;;;5101495;28;20491;-62
2022/05/06 04:41:15;;;;;;;11.57;6.43;;;11.80;99.90;;;;;;5107044;28;20095;-64
2022/05/06 04:43:42;;;;;;;9.85;5.85;;;11.80;99.90;;;;;;5104690;28;20051;-63
2022/05/06 04:46:10;;;;;;;10.18;6.65;;;11.90;99.90;;;;;;5102315;28;20044;-64
2022/05/06 04:48:37;;;;;;;11.13;6.80;;;11.80;99.90;;;;;;5094647;28;20048;-64
2022/05/06 04:51:09;;;;;;;8.45;5.57;;;11.90;99.90;;;;;;5100090;28;20059;-64
2022/05/06 04:53:36;;;;;;;9.43;6.40;;;11.90;99.90;;;;;;5108819;28;20498;-64
2022/05/06 04:56:04;;;;;;;12.38;6.57;;;11.90;99.90;;;;;;5094421;28;20135;-65
2022/05/06 04:58:36;;;;;;;8.77;5.90;;;12.00;99.90;;;;;;5097054;28;20119;-64
2022/05/06 05:01:07;;;;;;;8.00;5.50;;;12.00;99.90;;;;;;5090143;28;20514;-65
2022/05/06 05:03:36;;;;;;;10.40;6.00;;;12.10;99.90;;;;;;5103815;28;20430;-64
2022/05/06 05:06:03;;;;;;;10.27;5.78;;;12.10;99.90;;;;;;5098513;28;20044;-65
2022/05/06 05:08:31;;;;;;;12.80;6.53;;;12.20;99.90;;;;;;5103589;28;20507;-65
2022/05/06 05:11:02;;;;;;;12.05;7.50;;;12.20;99.90;;;;;;5106600;28;20063;-65
2022/05/06 05:13:39;;;;;;;8.18;5.78;;;12.30;99.90;;;;;;5085630;28;20044;-65
2022/05/06 05:16:15;;;;;;;9.00;5.53;;;12.30;99.90;;;;;;5107553;28;20118;-66
2022/05/06 05:18:42;;;;;;;8.68;5.70;;;12.40;99.90;;;;;;5101202;28;20068;-65
2022/05/06 05:21:10;;;;;;;8.63;5.60;;;12.40;99.90;;;;;;5107320;28;20559;-65
2022/05/06 05:23:39;;;;;;;9.95;5.78;;;12.50;99.90;;;;;;5102770;28;20512;-64
2022/05/06 05:26:07;;;;;;;12.98;6.65;;;12.60;99.90;;;;;;5094906;28;20114;-64
2022/05/06 05:28:35;;;;;;;14.57;6.95;;;12.60;99.90;;;;;;5099964;28;20462;-64
2022/05/06 05:31:04;;;;;;;12.25;5.97;;;12.70;99.90;;;;;;5094518;28;20051;-64
2022/05/06 05:33:34;;;;;;;7.95;4.90;;;12.70;99.90;;;;;;5095266;28;20067;-65
2022/05/06 05:36:02;;;;;;;12.25;5.65;;;12.70;99.90;;;;;;5091172;28;20445;-64
2022/05/06 05:38:29;;;;;;;9.23;5.03;;;12.80;99.90;;;;;;5091736;28;20534;-65
2022/05/06 05:40:56;;;;;;;10.18;4.97;;;12.90;99.90;;;;;;5108490;28;20075;-65
2022/05/06 05:49:00;;;;;;;10.30;5.38;;;13.00;99.90;;;;;;5102503;28;20058;-65
2022/05/06 05:51:28;;;;;;;10.20;5.45;;;13.10;99.90;;;;;;5109443;28;20078;-64
2022/05/06 05:53:59;;;;;;;11.07;5.03;;;13.10;99.90;;;;;;5104912;28;20400;-64
2022/05/06 05:56:30;;;;;;;6.95;4.90;;;13.20;99.90;;;;;;5097035;28;20055;-65
2022/05/06 05:58:58;;;;;;;13.07;5.65;;;13.30;99.90;;;;;;5093126;27;20421;-64
2022/05/06 06:01:28;;;;;;;9.90;4.95;;;13.40;99.90;;;;;;5093001;28;20040;-64
2022/05/06 06:03:58;;;;;;;7.60;4.60;;;13.50;99.90;;;;;;5097933;28;20031;-65
2022/05/06 06:06:27;;;;;;;8.05;4.50;;;13.60;99.90;;;;;;5089794;28;20064;-63
2022/05/06 06:08:55;;;;;;;12.25;4.53;;;13.70;99.90;;;;;;5103559;28;20143;-64
2022/05/06 06:11:24;;;;;;;8.40;4.30;;;13.70;99.90;;;;;;5103733;28;20055;-64
2022/05/06 06:13:53;;;;;;;10.25;4.68;;;13.80;99.90;;;;;;5096373;28;20078;-64
2022/05/06 06:16:24;;;;;;;8.35;4.50;;;14.00;99.90;;;;;;5100155;28;20048;-63
2022/05/06 06:18:51;;;;;;;14.43;4.57;;;14.00;99.90;;;;;;5096280;28;20507;-64
2022/05/06 06:21:22;;;;;;;7.80;3.50;;;14.10;99.90;;;;;;5091269;28;20048;-66
2022/05/06 06:23:49;;;;;;;7.07;4.15;;;14.20;99.90;;;;;;5102568;28;20200;-65
2022/05/06 06:26:17;;;;;;;7.07;3.92;;;14.10;99.90;;;;;;5099865;28;20039;-66
2022/05/06 06:28:46;;;;;;;9.55;4.57;;;14.20;99.90;;;;;;5104398;28;20044;-66
2022/05/06 06:31:14;;;;;;;7.82;3.75;;;14.20;99.90;;;;;;5116225;27;20108;-65
2022/05/06 06:33:44;;;;;;;9.65;4.22;;;14.40;99.90;;;;;;5090906;28;20084;-66
2022/05/06 06:36:17;;;;;;;11.10;5.80;;;14.50;99.90;;;;;;5097906;27;20396;-66
2022/05/06 06:38:46;;;;;;;11.55;6.43;;;14.60;99.90;;;;;;5096456;28;20040;-66
2022/05/06 06:41:14;;;;;;;12.55;5.75;;;14.60;99.90;;;;;;5096024;28;20370;-66
2022/05/06 06:43:42;;;;;;;10.82;5.25;;;14.50;99.90;;;;;;5101004;28;20048;-66
2022/05/06 06:46:28;;;;;;;9.38;5.30;;;14.70;99.90;;;;;;5096526;28;20135;-65
2022/05/06 06:49:16;;;;;;;9.38;4.63;;;14.70;99.90;;;;;;5075552;27;20124;-66
2022/05/06 06:52:14;;;;;;;7.35;4.53;;;14.90;99.90;;;;;;5097576;28;20078;-65
2022/05/06 06:54:42;;;;;;;6.15;3.78;;;15.10;99.90;;;;;;5107030;28;20044;-65
2022/05/06 06:57:09;;;;;;;6.57;3.47;;;15.20;99.90;;;;;;5091627;28;20587;-64
2022/05/06 06:59:36;;;;;;;6.80;3.53;;;15.30;99.90;;;;;;5093610;27;20050;-64
2022/05/06 07:02:04;;;;;;;8.77;3.88;;;15.40;99.90;;;;;;5094996;28;20043;-65
2022/05/06 07:04:31;;;;;;;5.80;3.35;;;15.50;99.90;;;;;;5089709;28;20048;-65
2022/05/06 07:12:30;;;;;;;6.20;2.90;;;15.60;99.90;;;;;;5093697;28;20516;-65
2022/05/06 07:14:58;;;;;;;9.00;3.78;;;15.70;99.90;;;;;;5107098;28;20371;-66
2022/05/06 07:17:25;;;;;;;5.20;3.20;;;15.80;99.90;;;;;;5109378;28;20383;-65
2022/05/06 07:19:53;;;;;;;7.35;2.85;;;15.90;99.90;;;;;;5101171;28;20524;-65
2022/05/06 07:22:20;;;;;;;7.32;3.00;;;15.90;99.90;;;;;;5109147;28;20048;-66
2022/05/06 07:24:54;;;;;;;8.98;3.13;;;16.00;99.90;;;;;;5097042;28;20040;-66
2022/05/06 07:27:22;;;;;;;5.55;2.65;;;16.10;99.90;;;;;;5103537;28;20048;-66
2022/05/06 07:29:49;;;;;;;6.97;2.85;;;16.20;99.90;;;;;;5107782;28;20058;-66
2022/05/06 07:32:18;;;;;;;6.45;2.70;;;16.20;99.90;;;;;;5109287;28;20131;-66
2022/05/06 07:34:45;;;;;;;6.22;2.88;;;16.30;99.90;;;;;;5103624;28;20304;-65
2022/05/06 07:37:12;;;;;;;5.85;2.90;;;16.40;99.90;;;;;;5095563;28;20040;-65
2022/05/06 07:39:40;;;;;;;4.85;2.22;;;16.50;99.90;;;;;;5096286;28;20071;-66
2022/05/06 07:42:08;;;;;;;8.07;2.45;;;16.40;99.90;;;;;;5088288;27;20495;-66
2022/05/06 07:44:35;;;;;;;6.70;2.50;;;16.60;99.90;;;;;;5093087;28;20054;-65
2022/05/06 07:47:03;;;;;;;5.43;2.92;;;16.60;99.90;;;;;;5095352;28;20413;-67
2022/05/06 07:49:31;;;;;;;10.40;2.80;;;16.70;99.90;;;;;;5098872;28;20081;-66
2022/05/06 07:51:58;;;;;;;9.88;2.45;;;16.60;99.90;;;;;;5101903;28;20118;-65
2022/05/06 07:54:25;;;;;;;8.60;2.30;;;16.70;99.90;;;;;;5107840;28;20054;-65
2022/05/06 07:56:53;;;;;;;5.20;2.13;;;16.90;99.90;;;;;;5108691;28;20044;-65
2022/05/06 07:59:20;;;;;;;6.70;2.58;;;17.10;99.90;;;;;;5096932;28;20489;-65
2022/05/06 08:04:34;;;;;;;6.05;2.67;;;17.20;99.90;;;;;;5107298;28;20050;-66
2022/05/06 08:07:02;;;;;;;6.80;2.53;;;17.40;99.90;;;;;;5103905;28;20092;-65
2022/05/06 08:09:30;;;;;;;5.43;2.92;;;17.30;99.90;;;;;;5103795;28;20047;-66
2022/05/06 08:11:57;;;;;;;5.85;2.42;;;17.30;99.90;;;;;;5106508;28;20071;-65
2022/05/06 08:14:25;;;;;;;3.88;2.20;;;17.30;99.90;;;;;;5107849;28;20380;-66
2022/05/06 08:16:53;;;;;;;7.60;2.45;;;17.50;99.90;;;;;;5108248;28;20052;-66
2022/05/06 08:19:21;;;;;;;5.53;2.20;;;17.60;99.90;;;;;;5106972;28;20123;-66
2022/05/06 08:21:50;;;;;;;4.93;2.20;;;17.70;99.90;;;;;;5099586;28;20062;-66
2022/05/06 08:24:18;;;;;;;4.45;2.13;;;17.80;99.90;;;;;;5100547;28;20386;-64
2022/05/06 08:26:46;;;;;;;4.25;2.05;;;17.70;99.90;;;;;;5099837;28;20055;-66
2022/05/06 08:29:14;;;;;;;5.55;2.42;;;17.80;99.90;;;;;;5108351;28;20487;-65
2022/05/06 08:31:41;;;;;;;5.47;2.00;;;18.00;99.90;;;;;;5099957;28;20051;-65
2022/05/06 08:34:12;;;;;;;4.40;2.20;;;18.10;99.90;;;;;;5104836;28;20517;-66
2022/05/06 08:36:45;;;;;;;6.75;2.30;;;18.10;99.90;;;;;;5108428;28;20120;-66
2022/05/06 08:39:12;;;;;;;3.70;1.95;;;18.20;99.90;;;;;;5108344;28;20090;-65
2022/05/06 08:41:41;;;;;;;4.15;1.92;;;18.40;99.90;;;;;;5099854;28;20048;-66
2022/05/06 08:52:36;;;;;;;6.50;2.08;;;19.10;99.90;;;;;;5102014;28;20060;-66
2022/05/06 08:55:05;;;;;;;5.07;2.00;;;19.20;99.90;;;;;;5103266;28;20353;-66
2022/05/06 08:57:35;;;;;;;8.75;2.20;;;19.40;99.90;;;;;;5101367;28;20139;-65
2022/05/06 09:00:04;;;;;;;6.57;2.20;;;19.60;99.90;;;;;;5105189;28;20373;-65
2022/05/06 09:02:31;;;;;;;7.30;2.22;;;19.80;99.90;;;;;;5096007;28;20534;-66
2022/05/06 09:04:59;;;;;;;6.22;2.50;;;19.90;99.90;;;;;;5094262;28;20134;-66
2022/05/06 09:07:27;;;;;;;6.95;2.15;;;20.10;99.90;;;;;;5091377;28;20491;-67
2022/05/06 09:10:14;;;;;;;7.75;2.20;;;20.10;99.90;;;;;;5100664;28;20052;-66
2022/05/06 09:12:44;;;;;;;6.03;2.13;;;20.20;99.90;;;;;;5098479;28;20652;-66
2022/05/06 09:18:05;;;;;;;7.85;2.03;;;20.50;99.90;;;;;;5097953;28;20044;-67
2022/05/06 09:20:37;;;;;;;10.80;2.40;;;20.50;99.90;;;;;;5095622;28;20048;-66
2022/05/06 09:23:28;;;;;;;5.50;1.98;;;20.30;99.90;;;;;;5103055;28;20055;-66
2022/05/06 09:25:55;;;;;;;6.68;2.47;;;20.10;99.90;;;;;;5107504;28;20163;-67
2022/05/06 09:28:30;;;;;;;5.35;2.50;;;20.10;99.90;;;;;;5109432;28;20480;-66
2022/05/06 09:30:59;;;;;;;7.97;2.47;;;20.20;99.90;;;;;;5106857;28;20469;-65
2022/05/06 09:33:31;;;;;;;4.53;1.83;;;20.30;99.90;;;;;;5102648;27;20044;-64
2022/05/06 09:35:58;;;;;;;6.07;2.75;;;20.50;99.90;;;;;;5104085;28;20454;-65
2022/05/06 09:38:27;;;;;;;3.78;2.17;;;20.50;99.90;;;;;;5107459;28;20036;-65
2022/05/06 09:40:54;;;;;;;4.70;2.30;;;20.60;99.90;;;;;;5106435;28;20044;-65
2022/05/06 09:43:22;;;;;;;7.32;2.20;;;20.50;99.90;;;;;;5105953;28;20070;-65
2022/05/06 09:45:49;;;;;;;5.13;2.40;;;20.60;99.90;;;;;;5090906;28;20040;-65
2022/05/06 09:48:16;;;;;;;5.70;2.25;;;20.50;99.90;;;;;;5096548;28;20046;-65
2022/05/06 09:50:46;;;;;;;4.60;2.10;;;20.60;99.90;;;;;;5097447;28;20039;-66
2022/05/06 09:53:22;;;;;;;5.57;2.15;;;20.80;99.90;;;;;;5095706;28;20126;-66
2022/05/06 09:55:49;;;;;;;5.75;2.63;;;20.90;99.90;;;;;;5095783;28;20153;-65
2022/05/06 09:58:17;;;;;;;5.63;2.20;;;21.10;99.90;;;;;;5111957;27;20035;-65
2022/05/06 10:00:45;;;;;;;6.30;2.20;;;21.20;99.90;;;;;;5098334;28;20043;-66
2022/05/06 10:03:12;;;;;;;5.55;2.13;;;21.30;99.90;;;;;;5093381;28;20081;-66
2022/05/06 10:05:39;;;;;;;4.97;2.40;;;21.30;99.90;;;;;;5106095;28;20234;-66
2022/05/06 10:08:19;;;;;;;4.22;1.85;;;21.40;99.90;;;;;;5104589;28;20534;-66
2022/05/06 10:11:00;;;;;;;5.28;2.20;;;21.50;99.90;;;;;;5092737;28;20047;-65
2022/05/06 10:13:32;;;;;;;4.07;2.08;;;21.50;99.90;;;;;;5093421;28;20040;-65
2022/05/06 10:15:59;;;;;;;6.32;2.53;;;21.50;99.90;;;;;;5099639;28;20452;-66
2022/05/06 10:18:35;;;;;;;4.55;2.30;;;21.50;99.90;;;;;;5097953;28;20110;-66
2022/05/06 10:21:10;;;;;;;5.38;2.17;;;21.70;99.90;;;;;;5092513;28;20371;-66
2022/05/06 10:23:48;;;;;;;5.38;2.17;;;21.60;99.90;;;;;;5095384;28;20125;-66
2022/05/06 10:26:37;;;;;;;4.97;2.42;;;21.60;99.90;;;;;;5093925;28;20093;-65
2022/05/06 10:34:57;;;;;;;6.38;2.20;;;22.20;99.90;;;;;;5097349;28;20438;-66
2022/05/06 10:37:38;;;;;;;4.80;1.90;;;22.40;99.90;;;;;;5106715;28;20409;-66
2022/05/06 10:40:29;;;;;;;5.28;1.95;;;22.60;99.90;;;;;;5101554;28;20063;-65
2022/05/06 10:42:57;;;;;;;4.70;2.22;;;22.60;99.90;;;;;;5075644;28;20071;-65
2022/05/06 10:45:34;;;;;;;3.95;2.20;;;22.60;99.90;;;;;;5109464;28;20036;-66
2022/05/06 10:48:16;;;;;;;8.43;3.65;;;22.30;99.90;;;;;;5107991;28;20044;-66
2022/05/06 10:50:43;;;;;;;5.38;2.60;;;22.20;99.90;;;;;;5109369;28;20847;-66
2022/05/06 10:53:34;;;;;;;6.45;2.38;;;22.30;99.90;;;;;;5098717;28;20071;-66
2022/05/06 10:56:02;;;;;;;6.05;2.60;;;22.50;99.90;;;;;;5106174;28;20514;-65
2022/05/06 10:58:29;;;;;;;5.30;2.60;;;22.60;99.90;;;;;;5103627;28;20124;-66
2022/05/06 11:01:00;;;;;;;7.32;2.88;;;22.90;99.90;;;;;;5089547;28;20400;-65
2022/05/06 11:03:28;;;;;;;5.40;3.63;;;23.00;99.90;;;;;;5103255;28;20506;-67
2022/05/06 11:05:55;;;;;;;5.95;2.60;;;22.80;99.90;;;;;;5093453;28;20469;-66
2022/05/06 11:08:32;;;;;;;6.93;2.40;;;22.80;99.90;;;;;;5089034;28;20328;-66
2022/05/06 11:11:01;;;;;;;6.85;2.67;;;22.90;99.90;;;;;;5101558;28;20044;-66
2022/05/06 11:13:33;;;;;;;5.75;2.50;;;22.90;99.90;;;;;;5095143;28;20048;-67
2022/05/06 11:16:07;;;;;;;7.93;2.60;;;23.10;99.90;;;;;;5090152;28;20042;-66
2022/05/06 11:18:42;;;;;;;4.40;2.50;;;23.00;99.90;;;;;;5095710;28;20050;-66
2022/05/06 11:21:20;;;;;;;6.82;2.63;;;23.20;99.90;;;;;;5093131;28;20498;-66
2022/05/06 11:23:47;;;;;;;5.57;2.83;;;23.10;99.90;;;;;;5092216;28;20519;-66
2022/05/06 11:26:29;;;;;;;5.20;2.53;;;23.10;99.90;;;;;;5108902;28;20053;-65
2022/05/06 11:29:01;;;;;;;5.72;2.22;;;23.20;99.90;;;;;;5108230;28;20039;-66
2022/05/06 11:31:28;;;;;;;4.85;2.47;;;23.20;99.90;;;;;;5095539;28;20534;-66
2022/05/06 11:34:03;;;;;;;4.97;3.00;;;23.20;99.90;;;;;;5108549;28;20428;-66
2022/05/06 11:36:31;;;;;;;8.20;3.83;;;23.60;99.90;;;;;;5102786;28;20172;-66
2022/05/06 11:39:08;;;;;;;6.35;3.75;;;23.10;99.90;;;;;;5096775;28;20040;-66
2022/05/06 11:41:36;;;;;;;9.18;4.00;;;22.90;99.90;;;;;;5108499;28;20066;-66
2022/05/06 11:44:05;;;;;;;6.47;3.33;;;23.00;99.90;;;;;;5093865;27;20429;-66
2022/05/06 11:49:25;;;;;;;7.43;3.80;;;23.10;99.90;;;;;;5091314;28;20032;-66
2022/05/06 11:51:58;;;;;;;5.43;3.30;;;23.00;99.90;;;;;;5107980;28;20074;-66
2022/05/06 11:54:27;;;;;;;7.50;3.22;;;23.10;99.90;;;;;;5107435;28;20501;-66
2022/05/06 11:56:54;;;;;;;6.22;3.90;;;23.10;99.90;;;;;;5107032;28;20145;-66
2022/05/06 11:59:22;;;;;;;7.55;4.18;;;23.40;99.90;;;;;;5111315;27;20122;-66
2022/05/06 12:01:49;;;;;;;5.93;3.63;;;23.20;99.90;;;;;;5089216;28;20131;-66
2022/05/06 12:04:17;;;;;;;7.65;3.78;;;23.20;99.90;;;;;;5106958;28;20071;-65
2022/05/06 12:06:51;;;;;;;8.43;4.32;;;23.10;99.90;;;;;;5106144;28;20055;-66
2022/05/06 12:09:24;;;;;;;8.73;3.92;;;23.10;99.90;;;;;;5097901;28;20047;-66
2022/05/06 12:12:07;;;;;;;9.23;3.88;;;23.20;99.90;;;;;;5099444;28;20116;-65
2022/05/06 12:14:35;;;;;;;8.13;3.47;;;22.90;99.90;;;;;;5097067;28;20027;-67
2022/05/06 12:17:04;;;;;;;13.05;3.95;;;23.10;99.90;;;;;;5099818;28;20036;-66
2022/05/06 12:19:37;;;;;;;8.82;3.60;;;23.20;99.90;;;;;;5106649;28;20495;-66
2022/05/06 12:22:13;;;;;;;6.80;3.33;;;23.60;99.90;;;;;;5107231;28;20065;-65
2022/05/06 12:24:50;;;;;;;5.18;3.78;;;23.50;99.90;;;;;;5107024;28;20220;-66
2022/05/06 12:27:28;;;;;;;7.45;3.72;;;23.50;99.90;;;;;;5088485;28;20056;-66
2022/05/06 12:29:58;;;;;;;7.78;3.83;;;23.00;99.70;;;;;;5088202;28;20212;-66
2022/05/06 12:32:28;;;;;;;6.20;3.30;;;23.00;99.90;;;;;;5101276;28;20040;-65
2022/05/06 12:35:09;;;;;;;6.63;3.80;;;23.00;99.90;;;;;;5091004;28;20122;-66
2022/05/06 12:37:53;;;;;;;7.40;3.50;;;23.10;99.90;;;;;;5103937;28;20086;-66
2022/05/06 12:40:20;;;;;;;5.95;3.53;;;23.30;99.90;;;;;;5107837;28;20059;-66
2022/05/06 12:43:09;;;;;;;5.45;3.28;;;23.40;99.70;;;;;;5110272;28;20046;-64
2022/05/06 12:45:50;;;;;;;5.18;2.97;;;23.50;99.90;;;;;;5103260;28;20498;-66
2022/05/06 12:51:03;;;;;;;8.00;3.05;;;23.20;99.70;;;;;;5105259;28;20052;-67
2022/05/06 12:53:31;;;;;;;5.82;3.38;;;23.20;99.50;;;;;;5112861;28;20043;-66
2022/05/06 12:55:58;;;;;;;6.95;3.65;;;23.20;99.10;;;;;;5110701;28;20074;-64
2022/05/06 12:58:27;;;;;;;5.90;3.92;;;23.20;99.80;;;;;;5108902;27;20426;-65
2022/05/06 13:01:00;;;;;;;7.25;4.35;;;22.80;99.90;;;;;;5101823;28;20093;-66
2022/05/06 13:03:29;;;;;;;5.60;3.70;;;22.70;99.90;;;;;;5101635;27;20051;-66
2022/05/06 13:05:56;;;;;;;9.13;4.57;;;22.70;99.90;;;;;;5092497;28;20046;-65
2022/05/06 13:08:24;;;;;;;4.88;3.03;;;22.90;99.90;;;;;;5101938;28;20058;-66
2022/05/06 13:10:52;;;;;;;5.22;3.45;;;22.90;99.90;;;;;;5110347;28;20092;-65
2022/05/06 13:13:19;;;;;;;6.28;4.18;;;23.00;99.80;;;;;;5112173;28;20044;-64
2022/05/06 13:15:46;;;;;;;11.82;4.28;;;23.00;99.90;;;;;;5108379;28;20072;-64
2022/05/06 13:18:15;;;;;;;7.68;4.03;;;23.10;99.90;;;;;;5110600;28;20062;-65
2022/05/06 13:20:44;;;;;;;7.40;3.70;;;22.80;99.90;;;;;;5103674;28;20048;-64
2022/05/06 13:23:11;;;;;;;7.18;3.65;;;22.70;99.90;;;;;;5112329;28;20127;-65
2022/05/06 13:25:38;;;;;;;9.50;3.90;;;22.80;99.90;;;;;;5107370;28;20571;-65
2022/05/06 13:28:05;;;;;;;7.63;3.53;;;23.00;99.90;;;;;;5102172;28;20040;-64
2022/05/06 13:30:33;;;;;;;8.95;3.58;;;22.80;99.90;;;;;;5109761;28;20110;-64
2022/05/06 13:33:00;;;;;;;10.00;4.25;;;22.60;99.90;;;;;;5108990;28;20063;-65
2022/05/06 13:35:28;;;;;;;8.43;4.35;;;22.60;99.90;;;;;;5102288;28;20111;-65
2022/05/06 13:37:55;;;;;;;5.03;3.33;;;22.60;99.90;;;;;;5111320;28;20067;-64
2022/05/06 13:40:23;;;;;;;7.28;3.63;;;22.60;99.90;;;;;;5110498;28;20035;-66
2022/05/06 13:42:51;;;;;;;7.80;3.72;;;22.70;99.90;;;;;;5111618;28;20046;-64
2022/05/06 13:45:18;;;;;;;7.95;3.53;;;22.60;99.90;;;;;;5105716;28;20459;-64
2022/05/06 13:47:46;;;;;;;8.40;3.10;;;22.40;99.90;;;;;;5092920;28;20048;-64
2022/05/06 13:50:13;;;;;;;6.90;3.70;;;22.60;99.90;;;;;;5109959;28;20145;-66